sensor_id;sensor_type;location;lat;lon;timestamp;P1;durP1;ratioP1;P2;durP2;ratioP2
9294;SDS011;4686;44.496;11.324;2024-02-15T00:00:16;22.00;;;16.90;;
9294;SDS011;4686;44.496;11.324;2024-02-15T00:02:44;18.63;;;16.47;;
9294;SDS011;4686;44.496;11.324;2024-02-15T00:05:11;17.93;;;16.00;;
9294;SDS011;4686;44.496;11.324;2024-02-15T00:07:41;20.50;;;17.50;;
9294;SDS011;4686;44.496;11.324;2024-02-15T00:10:09;22.50;;;16.93;;
9294;SDS011;4686;44.496;11.324;2024-02-15T00:12:38;24.47;;;16.70;;
9294;SDS011;4686;44.496;11.324;2024-02-15T00:15:08;19.90;;;15.50;;
9294;SDS011;4686;44.496;11.324;2024-02-15T00:17:36;18.10;;;16.17;;
9294;SDS011;4686;44.496;11.324;2024-02-15T00:20:03;17.13;;;15.33;;
9294;SDS011;4686;44.496;11.324;2024-02-15T00:22:34;18.43;;;16.03;;
9294;SDS011;4686;44.496;11.324;2024-02-15T00:25:03;16.90;;;15.10;;
9294;SDS011;4686;44.496;11.324;2024-02-15T00:27:31;18.03;;;16.10;;
9294;SDS011;4686;44.496;11.324;2024-02-15T00:30:00;19.73;;;15.90;;
9294;SDS011;4686;44.496;11.324;2024-02-15T00:32:27;24.23;;;17.27;;
9294;SDS011;4686;44.496;11.324;2024-02-15T00:34:57;19.00;;;16.03;;
9294;SDS011;4686;44.496;11.324;2024-02-15T00:37:26;21.20;;;16.13;;
9294;SDS011;4686;44.496;11.324;2024-02-15T00:39:53;17.10;;;15.40;;
9294;SDS011;4686;44.496;11.324;2024-02-15T00:42:22;22.73;;;17.00;;
9294;SDS011;4686;44.496;11.324;2024-02-15T00:44:49;18.27;;;16.03;;
9294;SDS011;4686;44.496;11.324;2024-02-15T00:47:17;17.83;;;16.03;;
9294;SDS011;4686;44.496;11.324;2024-02-15T00:49:46;19.90;;;16.00;;
9294;SDS011;4686;44.496;11.324;2024-02-15T00:52:15;17.20;;;15.50;;
9294;SDS011;4686;44.496;11.324;2024-02-15T00:54:43;21.37;;;16.50;;
9294;SDS011;4686;44.496;11.324;2024-02-15T00:57:11;18.83;;;15.40;;
9294;SDS011;4686;44.496;11.324;2024-02-15T00:59:39;17.37;;;15.53;;
9294;SDS011;4686;44.496;11.324;2024-02-15T01:02:07;17.73;;;15.70;;
9294;SDS011;4686;44.496;11.324;2024-02-15T01:04:34;18.67;;;16.63;;
9294;SDS011;4686;44.496;11.324;2024-02-15T01:07:01;18.30;;;16.10;;
9294;SDS011;4686;44.496;11.324;2024-02-15T01:09:29;20.63;;;15.20;;
9294;SDS011;4686;44.496;11.324;2024-02-15T01:11:56;20.87;;;16.00;;
9294;SDS011;4686;44.496;11.324;2024-02-15T01:14:24;23.57;;;15.20;;
9294;SDS011;4686;44.496;11.324;2024-02-15T01:16:56;18.17;;;16.27;;
9294;SDS011;4686;44.496;11.324;2024-02-15T01:19:23;21.37;;;16.43;;
9294;SDS011;4686;44.496;11.324;2024-02-15T01:21:51;16.77;;;15.00;;
9294;SDS011;4686;44.496;11.324;2024-02-15T01:24:20;20.13;;;15.60;;
9294;SDS011;4686;44.496;11.324;2024-02-15T01:26:47;16.20;;;14.60;;
9294;SDS011;4686;44.496;11.324;2024-02-15T01:29:14;16.97;;;15.37;;
9294;SDS011;4686;44.496;11.324;2024-02-15T01:31:42;17.93;;;15.80;;
9294;SDS011;4686;44.496;11.324;2024-02-15T01:34:11;18.10;;;15.23;;
9294;SDS011;4686;44.496;11.324;2024-02-15T01:36:38;17.30;;;15.23;;
9294;SDS011;4686;44.496;11.324;2024-02-15T01:39:05;18.30;;;15.20;;
9294;SDS011;4686;44.496;11.324;2024-02-15T01:41:32;18.87;;;15.73;;
9294;SDS011;4686;44.496;11.324;2024-02-15T01:44:00;17.20;;;15.47;;
9294;SDS011;4686;44.496;11.324;2024-02-15T01:46:27;17.07;;;14.63;;
9294;SDS011;4686;44.496;11.324;2024-02-15T01:48:56;16.00;;;14.20;;
9294;SDS011;4686;44.496;11.324;2024-02-15T01:51:25;18.43;;;15.20;;
9294;SDS011;4686;44.496;11.324;2024-02-15T01:53:53;16.07;;;14.37;;
9294;SDS011;4686;44.496;11.324;2024-02-15T01:56:21;18.60;;;14.23;;
9294;SDS011;4686;44.496;11.324;2024-02-15T01:58:50;16.40;;;14.70;;
9294;SDS011;4686;44.496;11.324;2024-02-15T02:01:18;16.87;;;15.13;;
9294;SDS011;4686;44.496;11.324;2024-02-15T02:03:46;17.10;;;15.30;;
9294;SDS011;4686;44.496;11.324;2024-02-15T02:06:13;16.10;;;14.50;;
9294;SDS011;4686;44.496;11.324;2024-02-15T02:08:42;15.67;;;14.17;;
9294;SDS011;4686;44.496;11.324;2024-02-15T02:11:09;16.03;;;14.40;;
9294;SDS011;4686;44.496;11.324;2024-02-15T02:13:37;16.10;;;14.50;;
9294;SDS011;4686;44.496;11.324;2024-02-15T02:16:05;15.73;;;14.17;;
9294;SDS011;4686;44.496;11.324;2024-02-15T02:18:51;19.10;;;14.80;;
9294;SDS011;4686;44.496;11.324;2024-02-15T02:21:20;16.27;;;14.57;;
9294;SDS011;4686;44.496;11.324;2024-02-15T02:23:52;16.90;;;15.03;;
9294;SDS011;4686;44.496;11.324;2024-02-15T02:26:21;15.40;;;13.57;;
9294;SDS011;4686;44.496;11.324;2024-02-15T02:28:49;15.90;;;14.27;;
9294;SDS011;4686;44.496;11.324;2024-02-15T02:31:18;15.70;;;13.60;;
9294;SDS011;4686;44.496;11.324;2024-02-15T02:33:47;15.57;;;14.07;;
9294;SDS011;4686;44.496;11.324;2024-02-15T02:36:15;20.57;;;14.43;;
9294;SDS011;4686;44.496;11.324;2024-02-15T02:38:42;18.13;;;14.10;;
9294;SDS011;4686;44.496;11.324;2024-02-15T02:41:10;15.87;;;14.37;;
9294;SDS011;4686;44.496;11.324;2024-02-15T02:43:39;19.53;;;13.93;;
9294;SDS011;4686;44.496;11.324;2024-02-15T02:46:06;15.10;;;13.70;;
9294;SDS011;4686;44.496;11.324;2024-02-15T02:48:33;16.13;;;14.50;;
9294;SDS011;4686;44.496;11.324;2024-02-15T02:51:01;16.47;;;14.00;;
9294;SDS011;4686;44.496;11.324;2024-02-15T02:53:28;16.10;;;13.40;;
9294;SDS011;4686;44.496;11.324;2024-02-15T02:55:56;14.50;;;13.20;;
9294;SDS011;4686;44.496;11.324;2024-02-15T02:58:23;15.13;;;13.43;;
9294;SDS011;4686;44.496;11.324;2024-02-15T03:00:52;17.10;;;14.23;;
9294;SDS011;4686;44.496;11.324;2024-02-15T03:03:18;15.40;;;13.57;;
9294;SDS011;4686;44.496;11.324;2024-02-15T03:05:45;14.83;;;13.40;;
9294;SDS011;4686;44.496;11.324;2024-02-15T03:08:13;15.93;;;14.30;;
9294;SDS011;4686;44.496;11.324;2024-02-15T03:10:42;15.73;;;14.23;;
9294;SDS011;4686;44.496;11.324;2024-02-15T03:13:10;16.67;;;13.00;;
9294;SDS011;4686;44.496;11.324;2024-02-15T03:15:37;15.50;;;13.40;;
9294;SDS011;4686;44.496;11.324;2024-02-15T03:18:08;14.13;;;12.83;;
9294;SDS011;4686;44.496;11.324;2024-02-15T03:20:36;15.47;;;13.10;;
9294;SDS011;4686;44.496;11.324;2024-02-15T03:23:04;13.73;;;12.43;;
9294;SDS011;4686;44.496;11.324;2024-02-15T03:25:31;16.03;;;14.27;;
9294;SDS011;4686;44.496;11.324;2024-02-15T03:28:00;14.53;;;13.07;;
9294;SDS011;4686;44.496;11.324;2024-02-15T03:30:29;14.37;;;13.07;;
9294;SDS011;4686;44.496;11.324;2024-02-15T03:32:57;15.23;;;13.73;;
9294;SDS011;4686;44.496;11.324;2024-02-15T03:35:26;13.50;;;12.20;;
9294;SDS011;4686;44.496;11.324;2024-02-15T03:37:56;15.80;;;13.73;;
9294;SDS011;4686;44.496;11.324;2024-02-15T03:40:24;14.97;;;13.43;;
9294;SDS011;4686;44.496;11.324;2024-02-15T03:42:53;14.33;;;12.93;;
9294;SDS011;4686;44.496;11.324;2024-02-15T03:45:21;16.30;;;13.60;;
9294;SDS011;4686;44.496;11.324;2024-02-15T03:47:49;14.20;;;12.70;;
9294;SDS011;4686;44.496;11.324;2024-02-15T03:50:17;14.07;;;12.70;;
9294;SDS011;4686;44.496;11.324;2024-02-15T03:52:48;13.17;;;11.97;;
9294;SDS011;4686;44.496;11.324;2024-02-15T03:55:15;14.13;;;12.73;;
9294;SDS011;4686;44.496;11.324;2024-02-15T03:57:42;13.67;;;12.17;;
9294;SDS011;4686;44.496;11.324;2024-02-15T04:00:11;15.47;;;13.97;;
9294;SDS011;4686;44.496;11.324;2024-02-15T04:02:39;14.40;;;12.93;;
9294;SDS011;4686;44.496;11.324;2024-02-15T04:05:06;14.03;;;11.60;;
9294;SDS011;4686;44.496;11.324;2024-02-15T04:07:34;15.77;;;12.57;;
9294;SDS011;4686;44.496;11.324;2024-02-15T04:10:05;13.53;;;12.13;;
9294;SDS011;4686;44.496;11.324;2024-02-15T04:12:33;13.23;;;11.90;;
9294;SDS011;4686;44.496;11.324;2024-02-15T04:15:00;12.80;;;11.77;;
9294;SDS011;4686;44.496;11.324;2024-02-15T04:17:30;14.27;;;12.83;;
9294;SDS011;4686;44.496;11.324;2024-02-15T04:20:00;13.47;;;11.80;;
9294;SDS011;4686;44.496;11.324;2024-02-15T04:22:28;13.47;;;12.20;;
9294;SDS011;4686;44.496;11.324;2024-02-15T04:25:03;13.43;;;12.07;;
9294;SDS011;4686;44.496;11.324;2024-02-15T04:27:32;12.83;;;11.53;;
9294;SDS011;4686;44.496;11.324;2024-02-15T04:30:00;14.37;;;12.97;;
9294;SDS011;4686;44.496;11.324;2024-02-15T04:32:28;14.63;;;12.43;;
9294;SDS011;4686;44.496;11.324;2024-02-15T04:34:58;15.40;;;13.07;;
9294;SDS011;4686;44.496;11.324;2024-02-15T04:37:25;14.40;;;11.73;;
9294;SDS011;4686;44.496;11.324;2024-02-15T04:39:54;17.50;;;11.60;;
9294;SDS011;4686;44.496;11.324;2024-02-15T04:42:21;12.37;;;11.13;;
9294;SDS011;4686;44.496;11.324;2024-02-15T04:44:53;12.27;;;11.10;;
9294;SDS011;4686;44.496;11.324;2024-02-15T04:47:20;14.60;;;12.60;;
9294;SDS011;4686;44.496;11.324;2024-02-15T04:49:48;13.10;;;11.70;;
9294;SDS011;4686;44.496;11.324;2024-02-15T04:52:15;12.60;;;11.37;;
9294;SDS011;4686;44.496;11.324;2024-02-15T04:54:43;13.70;;;12.23;;
9294;SDS011;4686;44.496;11.324;2024-02-15T04:57:11;13.40;;;12.10;;
9294;SDS011;4686;44.496;11.324;2024-02-15T04:59:38;14.70;;;11.70;;
9294;SDS011;4686;44.496;11.324;2024-02-15T05:02:13;14.43;;;12.23;;
9294;SDS011;4686;44.496;11.324;2024-02-15T05:04:50;13.23;;;11.93;;
9294;SDS011;4686;44.496;11.324;2024-02-15T05:07:21;14.17;;;12.77;;
9294;SDS011;4686;44.496;11.324;2024-02-15T05:09:51;15.90;;;12.50;;
9294;SDS011;4686;44.496;11.324;2024-02-15T05:12:22;14.83;;;12.57;;
9294;SDS011;4686;44.496;11.324;2024-02-15T05:14:51;13.00;;;11.70;;
9294;SDS011;4686;44.496;11.324;2024-02-15T05:17:21;13.13;;;11.90;;
9294;SDS011;4686;44.496;11.324;2024-02-15T05:19:54;14.03;;;12.73;;
9294;SDS011;4686;44.496;11.324;2024-02-15T05:22:24;12.90;;;10.70;;
9294;SDS011;4686;44.496;11.324;2024-02-15T05:24:53;12.53;;;11.43;;
9294;SDS011;4686;44.496;11.324;2024-02-15T05:27:26;12.90;;;11.60;;
9294;SDS011;4686;44.496;11.324;2024-02-15T05:29:54;12.93;;;11.53;;
9294;SDS011;4686;44.496;11.324;2024-02-15T05:32:23;15.60;;;11.77;;
9294;SDS011;4686;44.496;11.324;2024-02-15T05:34:51;14.47;;;12.23;;
9294;SDS011;4686;44.496;11.324;2024-02-15T05:37:20;11.90;;;10.93;;
9294;SDS011;4686;44.496;11.324;2024-02-15T05:39:48;12.80;;;11.47;;
9294;SDS011;4686;44.496;11.324;2024-02-15T05:42:19;12.30;;;11.00;;
9294;SDS011;4686;44.496;11.324;2024-02-15T05:44:47;13.47;;;12.20;;
9294;SDS011;4686;44.496;11.324;2024-02-15T05:47:16;12.67;;;11.40;;
9294;SDS011;4686;44.496;11.324;2024-02-15T05:49:52;14.67;;;12.63;;
9294;SDS011;4686;44.496;11.324;2024-02-15T05:52:22;12.10;;;10.90;;
9294;SDS011;4686;44.496;11.324;2024-02-15T05:54:50;12.17;;;11.07;;
9294;SDS011;4686;44.496;11.324;2024-02-15T05:57:17;11.70;;;10.60;;
9294;SDS011;4686;44.496;11.324;2024-02-15T05:59:45;12.67;;;10.93;;
9294;SDS011;4686;44.496;11.324;2024-02-15T06:02:14;14.37;;;11.23;;
9294;SDS011;4686;44.496;11.324;2024-02-15T06:04:42;15.17;;;10.67;;
9294;SDS011;4686;44.496;11.324;2024-02-15T06:07:30;12.23;;;10.90;;
9294;SDS011;4686;44.496;11.324;2024-02-15T06:10:01;14.60;;;11.73;;
9294;SDS011;4686;44.496;11.324;2024-02-15T06:12:31;12.43;;;10.13;;
9294;SDS011;4686;44.496;11.324;2024-02-15T06:15:03;11.97;;;10.87;;
9294;SDS011;4686;44.496;11.324;2024-02-15T06:17:30;12.60;;;11.40;;
9294;SDS011;4686;44.496;11.324;2024-02-15T06:19:58;11.93;;;10.07;;
9294;SDS011;4686;44.496;11.324;2024-02-15T06:22:25;14.57;;;11.70;;
9294;SDS011;4686;44.496;11.324;2024-02-15T06:24:54;15.80;;;10.93;;
9294;SDS011;4686;44.496;11.324;2024-02-15T06:27:22;16.60;;;10.77;;
9294;SDS011;4686;44.496;11.324;2024-02-15T06:29:50;12.17;;;10.77;;
9294;SDS011;4686;44.496;11.324;2024-02-15T06:32:34;11.40;;;10.30;;
9294;SDS011;4686;44.496;11.324;2024-02-15T06:35:25;11.90;;;10.90;;
9294;SDS011;4686;44.496;11.324;2024-02-15T06:38:10;12.77;;;11.10;;
9294;SDS011;4686;44.496;11.324;2024-02-15T06:40:56;11.87;;;10.70;;
9294;SDS011;4686;44.496;11.324;2024-02-15T06:43:25;12.47;;;11.27;;
9294;SDS011;4686;44.496;11.324;2024-02-15T06:45:55;12.50;;;11.40;;
9294;SDS011;4686;44.496;11.324;2024-02-15T06:49:05;12.60;;;11.33;;
9294;SDS011;4686;44.496;11.324;2024-02-15T06:51:33;14.03;;;11.30;;
9294;SDS011;4686;44.496;11.324;2024-02-15T06:54:01;12.23;;;11.03;;
9294;SDS011;4686;44.496;11.324;2024-02-15T06:59:34;12.23;;;10.93;;
9294;SDS011;4686;44.496;11.324;2024-02-15T07:02:02;12.97;;;10.87;;
9294;SDS011;4686;44.496;11.324;2024-02-15T07:26:26;11.57;;;9.97;;
9294;SDS011;4686;44.496;11.324;2024-02-15T07:28:58;11.10;;;10.00;;
9294;SDS011;4686;44.496;11.324;2024-02-15T07:34:41;11.73;;;10.63;;
9294;SDS011;4686;44.496;11.324;2024-02-15T07:37:11;13.10;;;11.10;;
9294;SDS011;4686;44.496;11.324;2024-02-15T07:39:40;11.33;;;10.00;;
9294;SDS011;4686;44.496;11.324;2024-02-15T07:42:09;10.50;;;9.57;;
9294;SDS011;4686;44.496;11.324;2024-02-15T07:44:37;10.87;;;9.87;;
9294;SDS011;4686;44.496;11.324;2024-02-15T07:47:05;11.07;;;9.50;;
9294;SDS011;4686;44.496;11.324;2024-02-15T07:49:34;13.77;;;10.50;;
9294;SDS011;4686;44.496;11.324;2024-02-15T07:52:01;18.77;;;9.90;;
9294;SDS011;4686;44.496;11.324;2024-02-15T07:54:29;10.73;;;9.63;;
9294;SDS011;4686;44.496;11.324;2024-02-15T07:56:58;16.47;;;10.60;;
9294;SDS011;4686;44.496;11.324;2024-02-15T07:59:28;18.60;;;12.13;;
9294;SDS011;4686;44.496;11.324;2024-02-15T08:02:13;9.47;;;8.47;;
9294;SDS011;4686;44.496;11.324;2024-02-15T08:04:47;11.50;;;9.43;;
9294;SDS011;4686;44.496;11.324;2024-02-15T08:07:15;10.83;;;9.40;;
9294;SDS011;4686;44.496;11.324;2024-02-15T08:09:59;13.97;;;9.30;;
9294;SDS011;4686;44.496;11.324;2024-02-15T08:12:26;11.33;;;9.30;;
9294;SDS011;4686;44.496;11.324;2024-02-15T08:14:58;13.50;;;9.20;;
9294;SDS011;4686;44.496;11.324;2024-02-15T08:17:30;12.10;;;9.07;;
9294;SDS011;4686;44.496;11.324;2024-02-15T08:19:57;10.80;;;9.47;;
9294;SDS011;4686;44.496;11.324;2024-02-15T08:22:25;14.50;;;9.53;;
9294;SDS011;4686;44.496;11.324;2024-02-15T08:24:55;15.23;;;8.63;;
9294;SDS011;4686;44.496;11.324;2024-02-15T08:27:22;9.53;;;8.50;;
9294;SDS011;4686;44.496;11.324;2024-02-15T08:29:50;9.47;;;8.67;;
9294;SDS011;4686;44.496;11.324;2024-02-15T08:32:20;12.60;;;8.90;;
9294;SDS011;4686;44.496;11.324;2024-02-15T08:34:49;11.00;;;9.57;;
9294;SDS011;4686;44.496;11.324;2024-02-15T08:37:18;9.63;;;8.70;;
9294;SDS011;4686;44.496;11.324;2024-02-15T08:39:52;10.50;;;9.30;;
9294;SDS011;4686;44.496;11.324;2024-02-15T08:42:19;24.63;;;13.43;;
9294;SDS011;4686;44.496;11.324;2024-02-15T08:44:50;21.80;;;18.30;;
9294;SDS011;4686;44.496;11.324;2024-02-15T08:47:23;22.70;;;19.50;;
9294;SDS011;4686;44.496;11.324;2024-02-15T08:49:53;24.93;;;20.37;;
9294;SDS011;4686;44.496;11.324;2024-02-15T08:52:21;39.00;;;23.17;;
9294;SDS011;4686;44.496;11.324;2024-02-15T08:54:52;30.40;;;22.70;;
9294;SDS011;4686;44.496;11.324;2024-02-15T08:57:28;28.00;;;22.60;;
9294;SDS011;4686;44.496;11.324;2024-02-15T08:59:58;23.30;;;20.00;;
9294;SDS011;4686;44.496;11.324;2024-02-15T09:18:15;22.50;;;17.07;;
9294;SDS011;4686;44.496;11.324;2024-02-15T09:20:46;30.27;;;19.33;;
9294;SDS011;4686;44.496;11.324;2024-02-15T09:23:20;26.53;;;17.63;;
9294;SDS011;4686;44.496;11.324;2024-02-15T09:25:48;24.30;;;19.00;;
9294;SDS011;4686;44.496;11.324;2024-02-15T09:28:19;22.90;;;17.70;;
9294;SDS011;4686;44.496;11.324;2024-02-15T09:30:47;28.33;;;19.17;;
9294;SDS011;4686;44.496;11.324;2024-02-15T09:33:18;30.77;;;19.80;;
9294;SDS011;4686;44.496;11.324;2024-02-15T09:35:45;25.93;;;18.70;;
9294;SDS011;4686;44.496;11.324;2024-02-15T09:38:15;27.43;;;20.10;;
9294;SDS011;4686;44.496;11.324;2024-02-15T09:43:47;32.40;;;22.00;;
9294;SDS011;4686;44.496;11.324;2024-02-15T09:46:14;44.27;;;29.07;;
9294;SDS011;4686;44.496;11.324;2024-02-15T09:48:44;31.50;;;23.97;;
9294;SDS011;4686;44.496;11.324;2024-02-15T09:51:14;34.13;;;24.57;;
9294;SDS011;4686;44.496;11.324;2024-02-15T09:53:42;31.10;;;24.20;;
9294;SDS011;4686;44.496;11.324;2024-02-15T09:56:11;39.30;;;28.30;;
9294;SDS011;4686;44.496;11.324;2024-02-15T09:58:44;41.60;;;26.83;;
9294;SDS011;4686;44.496;11.324;2024-02-15T10:01:25;31.23;;;23.10;;
9294;SDS011;4686;44.496;11.324;2024-02-15T10:03:57;33.77;;;24.57;;
9294;SDS011;4686;44.496;11.324;2024-02-15T10:06:25;32.37;;;23.93;;
9294;SDS011;4686;44.496;11.324;2024-02-15T10:08:53;38.70;;;27.10;;
9294;SDS011;4686;44.496;11.324;2024-02-15T10:11:22;28.97;;;23.90;;
9294;SDS011;4686;44.496;11.324;2024-02-15T10:13:50;31.67;;;23.60;;
9294;SDS011;4686;44.496;11.324;2024-02-15T10:16:18;31.97;;;23.67;;
9294;SDS011;4686;44.496;11.324;2024-02-15T10:18:50;31.03;;;21.87;;
9294;SDS011;4686;44.496;11.324;2024-02-15T10:21:25;33.27;;;23.80;;
9294;SDS011;4686;44.496;11.324;2024-02-15T10:24:07;28.57;;;22.43;;
9294;SDS011;4686;44.496;11.324;2024-02-15T10:26:35;24.80;;;22.10;;
9294;SDS011;4686;44.496;11.324;2024-02-15T10:29:06;29.50;;;23.67;;
9294;SDS011;4686;44.496;11.324;2024-02-15T10:31:34;35.13;;;23.60;;
9294;SDS011;4686;44.496;11.324;2024-02-15T10:34:02;31.47;;;23.30;;
9294;SDS011;4686;44.496;11.324;2024-02-15T10:36:33;34.37;;;23.67;;
9294;SDS011;4686;44.496;11.324;2024-02-15T10:39:10;33.23;;;24.50;;
9294;SDS011;4686;44.496;11.324;2024-02-15T10:41:43;27.63;;;21.63;;
9294;SDS011;4686;44.496;11.324;2024-02-15T10:44:12;28.23;;;22.20;;
9294;SDS011;4686;44.496;11.324;2024-02-15T10:46:42;27.23;;;21.73;;
9294;SDS011;4686;44.496;11.324;2024-02-15T10:49:11;33.43;;;23.80;;
9294;SDS011;4686;44.496;11.324;2024-02-15T10:51:42;32.83;;;24.37;;
9294;SDS011;4686;44.496;11.324;2024-02-15T10:54:11;33.60;;;24.87;;
9294;SDS011;4686;44.496;11.324;2024-02-15T10:56:42;36.10;;;25.13;;
9294;SDS011;4686;44.496;11.324;2024-02-15T10:59:16;37.93;;;26.00;;
9294;SDS011;4686;44.496;11.324;2024-02-15T11:01:44;33.07;;;26.43;;
9294;SDS011;4686;44.496;11.324;2024-02-15T11:04:14;35.73;;;26.00;;
9294;SDS011;4686;44.496;11.324;2024-02-15T11:06:43;34.20;;;27.60;;
9294;SDS011;4686;44.496;11.324;2024-02-15T11:09:15;39.70;;;28.43;;
9294;SDS011;4686;44.496;11.324;2024-02-15T11:11:47;35.43;;;28.43;;
9294;SDS011;4686;44.496;11.324;2024-02-15T11:14:25;48.17;;;29.80;;
9294;SDS011;4686;44.496;11.324;2024-02-15T11:16:54;36.83;;;28.40;;
9294;SDS011;4686;44.496;11.324;2024-02-15T11:22:19;47.10;;;28.20;;
9294;SDS011;4686;44.496;11.324;2024-02-15T11:24:48;43.93;;;28.50;;
9294;SDS011;4686;44.496;11.324;2024-02-15T11:27:25;37.67;;;26.77;;
9294;SDS011;4686;44.496;11.324;2024-02-15T11:29:57;39.37;;;29.03;;
9294;SDS011;4686;44.496;11.324;2024-02-15T11:32:38;37.47;;;29.27;;
9294;SDS011;4686;44.496;11.324;2024-02-15T11:35:05;43.27;;;30.10;;
9294;SDS011;4686;44.496;11.324;2024-02-15T11:37:53;40.63;;;29.23;;
9294;SDS011;4686;44.496;11.324;2024-02-15T11:40:20;38.57;;;27.47;;
9294;SDS011;4686;44.496;11.324;2024-02-15T11:42:52;39.10;;;29.60;;
9294;SDS011;4686;44.496;11.324;2024-02-15T11:45:19;38.83;;;29.27;;
9294;SDS011;4686;44.496;11.324;2024-02-15T11:47:47;43.27;;;29.33;;
9294;SDS011;4686;44.496;11.324;2024-02-15T11:50:15;40.10;;;27.70;;
9294;SDS011;4686;44.496;11.324;2024-02-15T11:52:43;40.30;;;27.80;;
9294;SDS011;4686;44.496;11.324;2024-02-15T11:55:12;39.17;;;29.70;;
9294;SDS011;4686;44.496;11.324;2024-02-15T11:57:40;45.10;;;32.00;;
9294;SDS011;4686;44.496;11.324;2024-02-15T12:00:20;43.27;;;30.80;;
9294;SDS011;4686;44.496;11.324;2024-02-15T12:03:05;38.83;;;31.57;;
9294;SDS011;4686;44.496;11.324;2024-02-15T12:05:50;43.90;;;31.60;;
9294;SDS011;4686;44.496;11.324;2024-02-15T12:08:35;44.60;;;30.90;;
9294;SDS011;4686;44.496;11.324;2024-02-15T12:11:21;37.53;;;30.40;;
9294;SDS011;4686;44.496;11.324;2024-02-15T12:14:06;46.40;;;30.07;;
9294;SDS011;4686;44.496;11.324;2024-02-15T12:17:00;42.73;;;32.83;;
9294;SDS011;4686;44.496;11.324;2024-02-15T12:19:47;42.17;;;31.70;;
9294;SDS011;4686;44.496;11.324;2024-02-15T12:22:15;44.70;;;30.80;;
9294;SDS011;4686;44.496;11.324;2024-02-15T12:24:45;49.90;;;29.30;;
9294;SDS011;4686;44.496;11.324;2024-02-15T12:27:24;41.60;;;31.67;;
9294;SDS011;4686;44.496;11.324;2024-02-15T12:29:55;42.63;;;31.80;;
9294;SDS011;4686;44.496;11.324;2024-02-15T12:33:52;42.60;;;31.70;;
9294;SDS011;4686;44.496;11.324;2024-02-15T12:35:37;37.23;;;29.60;;
9294;SDS011;4686;44.496;11.324;2024-02-15T12:38:07;44.23;;;30.13;;
9294;SDS011;4686;44.496;11.324;2024-02-15T12:40:34;39.40;;;30.40;;
9294;SDS011;4686;44.496;11.324;2024-02-15T12:43:06;41.70;;;30.67;;
9294;SDS011;4686;44.496;11.324;2024-02-15T12:45:36;51.20;;;31.03;;
9294;SDS011;4686;44.496;11.324;2024-02-15T12:48:04;38.10;;;31.20;;
9294;SDS011;4686;44.496;11.324;2024-02-15T12:50:32;42.00;;;29.80;;
9294;SDS011;4686;44.496;11.324;2024-02-15T12:53:01;45.30;;;32.00;;
9294;SDS011;4686;44.496;11.324;2024-02-15T12:55:28;40.70;;;31.20;;
9294;SDS011;4686;44.496;11.324;2024-02-15T12:58:00;39.83;;;31.10;;
9294;SDS011;4686;44.496;11.324;2024-02-15T13:00:31;40.20;;;31.47;;
9294;SDS011;4686;44.496;11.324;2024-02-15T13:03:01;37.03;;;30.63;;
9294;SDS011;4686;44.496;11.324;2024-02-15T13:05:30;37.60;;;32.10;;
9294;SDS011;4686;44.496;11.324;2024-02-15T13:07:57;44.83;;;32.60;;
9294;SDS011;4686;44.496;11.324;2024-02-15T13:10:27;46.90;;;32.73;;
9294;SDS011;4686;44.496;11.324;2024-02-15T13:12:55;49.40;;;37.33;;
9294;SDS011;4686;44.496;11.324;2024-02-15T13:15:22;40.20;;;30.80;;
9294;SDS011;4686;44.496;11.324;2024-02-15T13:17:59;47.77;;;31.67;;
9294;SDS011;4686;44.496;11.324;2024-02-15T13:20:44;45.23;;;30.90;;
9294;SDS011;4686;44.496;11.324;2024-02-15T13:23:20;43.50;;;32.17;;
9294;SDS011;4686;44.496;11.324;2024-02-15T13:25:50;43.13;;;30.40;;
9294;SDS011;4686;44.496;11.324;2024-02-15T13:28:18;45.70;;;33.10;;
9294;SDS011;4686;44.496;11.324;2024-02-15T13:31:00;43.87;;;32.80;;
9294;SDS011;4686;44.496;11.324;2024-02-15T13:33:29;43.60;;;33.57;;
9294;SDS011;4686;44.496;11.324;2024-02-15T13:35:57;45.87;;;35.17;;
9294;SDS011;4686;44.496;11.324;2024-02-15T13:38:24;44.27;;;33.20;;
9294;SDS011;4686;44.496;11.324;2024-02-15T13:40:53;48.07;;;35.27;;
9294;SDS011;4686;44.496;11.324;2024-02-15T13:43:22;42.17;;;33.10;;
9294;SDS011;4686;44.496;11.324;2024-02-15T13:45:50;43.77;;;34.37;;
9294;SDS011;4686;44.496;11.324;2024-02-15T13:48:21;47.13;;;35.30;;
9294;SDS011;4686;44.496;11.324;2024-02-15T13:50:52;45.30;;;34.87;;
9294;SDS011;4686;44.496;11.324;2024-02-15T13:53:27;56.40;;;38.97;;
9294;SDS011;4686;44.496;11.324;2024-02-15T13:59:04;52.97;;;38.40;;
9294;SDS011;4686;44.496;11.324;2024-02-15T14:01:34;47.33;;;36.07;;
9294;SDS011;4686;44.496;11.324;2024-02-15T14:04:08;49.47;;;35.90;;
9294;SDS011;4686;44.496;11.324;2024-02-15T14:06:39;48.13;;;34.60;;
9294;SDS011;4686;44.496;11.324;2024-02-15T14:09:10;47.60;;;35.03;;
9294;SDS011;4686;44.496;11.324;2024-02-15T14:11:38;49.27;;;36.57;;
9294;SDS011;4686;44.496;11.324;2024-02-15T14:14:05;55.10;;;36.47;;
9294;SDS011;4686;44.496;11.324;2024-02-15T14:16:33;52.70;;;36.23;;
9294;SDS011;4686;44.496;11.324;2024-02-15T14:19:07;50.23;;;35.20;;
9294;SDS011;4686;44.496;11.324;2024-02-15T14:21:43;49.80;;;37.47;;
9294;SDS011;4686;44.496;11.324;2024-02-15T14:24:11;47.20;;;35.47;;
9294;SDS011;4686;44.496;11.324;2024-02-15T14:26:39;42.97;;;34.30;;
9294;SDS011;4686;44.496;11.324;2024-02-15T14:29:06;55.93;;;39.50;;
9294;SDS011;4686;44.496;11.324;2024-02-15T14:31:35;48.03;;;35.63;;
9294;SDS011;4686;44.496;11.324;2024-02-15T14:34:19;51.20;;;35.10;;
9294;SDS011;4686;44.496;11.324;2024-02-15T14:36:49;48.50;;;34.80;;
9294;SDS011;4686;44.496;11.324;2024-02-15T14:39:16;52.37;;;36.13;;
9294;SDS011;4686;44.496;11.324;2024-02-15T14:41:44;52.30;;;37.50;;
9294;SDS011;4686;44.496;11.324;2024-02-15T14:44:13;47.70;;;35.60;;
9294;SDS011;4686;44.496;11.324;2024-02-15T14:46:40;45.10;;;35.27;;
9294;SDS011;4686;44.496;11.324;2024-02-15T14:49:07;50.23;;;36.70;;
9294;SDS011;4686;44.496;11.324;2024-02-15T14:51:38;49.10;;;36.53;;
9294;SDS011;4686;44.496;11.324;2024-02-15T14:54:10;49.13;;;36.93;;
9294;SDS011;4686;44.496;11.324;2024-02-15T14:59:23;47.37;;;35.00;;
9294;SDS011;4686;44.496;11.324;2024-02-15T15:02:04;47.07;;;34.90;;
9294;SDS011;4686;44.496;11.324;2024-02-15T15:04:33;44.90;;;33.40;;
9294;SDS011;4686;44.496;11.324;2024-02-15T15:07:21;62.23;;;36.77;;
9294;SDS011;4686;44.496;11.324;2024-02-15T15:10:07;43.33;;;34.00;;
9294;SDS011;4686;44.496;11.324;2024-02-15T15:12:55;55.17;;;39.00;;
9294;SDS011;4686;44.496;11.324;2024-02-15T15:15:24;47.80;;;36.40;;
9294;SDS011;4686;44.496;11.324;2024-02-15T15:17:52;50.27;;;38.07;;
9294;SDS011;4686;44.496;11.324;2024-02-15T15:20:21;51.57;;;38.33;;
9294;SDS011;4686;44.496;11.324;2024-02-15T15:47:00;55.17;;;40.13;;
9294;SDS011;4686;44.496;11.324;2024-02-15T15:49:28;50.83;;;37.57;;
9294;SDS011;4686;44.496;11.324;2024-02-15T15:51:56;57.77;;;37.23;;
9294;SDS011;4686;44.496;11.324;2024-02-15T15:54:23;51.93;;;36.90;;
9294;SDS011;4686;44.496;11.324;2024-02-15T15:56:51;60.60;;;39.97;;
9294;SDS011;4686;44.496;11.324;2024-02-15T15:59:21;51.73;;;37.03;;
9294;SDS011;4686;44.496;11.324;2024-02-15T16:08:12;52.80;;;39.80;;
9294;SDS011;4686;44.496;11.324;2024-02-15T16:10:39;54.80;;;39.33;;
9294;SDS011;4686;44.496;11.324;2024-02-15T16:13:07;54.57;;;39.93;;
9294;SDS011;4686;44.496;11.324;2024-02-15T16:15:34;53.13;;;39.53;;
9294;SDS011;4686;44.496;11.324;2024-02-15T16:18:06;53.73;;;40.00;;
9294;SDS011;4686;44.496;11.324;2024-02-15T16:20:34;61.80;;;40.50;;